Time;durP1;ratioP1;P1;durP2;ratioP2;P2;SDS_P1;SDS_P2;PMS_P1;PMS_P2;Temp;Humidity;BMP_temperature;BMP_pressure;BME280_temperature;BME280_humidity;BME280_pressure;Samples;Min_cycle;Max_cycle;Signal;HPM_P1;HPM_P2
2022/03/22 00:00:14;;;;;;;;;;;;;;;0.44;100.00;97080.25;1027830;28;19981;-70
2022/03/22 00:00:44;;;;;;;;;;;;;;;0.44;100.00;97082.84;1027244;28;19973;-68
2022/03/22 00:01:15;;;;;;;;;;;;;;;0.45;100.00;97078.47;1027802;28;19914;-69
2022/03/22 00:01:47;;;;;;;;;;;;;;;0.42;100.00;97083.97;1027648;28;19941;-69
2022/03/22 00:02:17;;;;;;;;;;;;;;;0.50;100.00;97083.94;1035404;28;19918;-69
2022/03/22 00:02:48;;;;;;;;;;;;;;;0.46;100.00;97082.66;1031411;28;20544;-69
2022/03/22 00:03:23;;;;;;;;;;;;;;;0.45;100.00;97081.84;1031231;28;19918;-69
2022/03/22 00:03:53;;;;;;;;;;;;;;;0.44;100.00;97085.41;1035243;28;20454;-70
2022/03/22 00:04:24;;;;;;;;;;;;;;;0.46;100.00;97082.66;1031790;28;19929;-68
2022/03/22 00:04:55;;;;;;;;;;;;;;;0.44;100.00;97087.19;1031748;28;20450;-69
2022/03/22 00:05:25;;;;;;;;;;;;;;;0.45;100.00;97081.06;1031093;28;19922;-69
2022/03/22 00:05:56;;;;;;;;;;;;;;;0.43;100.00;97083.78;1027100;28;19918;-69
2022/03/22 00:06:29;;;;;;;;;;;;;;;0.44;100.00;97090.59;1031480;28;19917;-69
2022/03/22 00:06:59;;;;;;;;;;;;;;;0.45;100.00;97081.06;1031656;28;20315;-70
2022/03/22 00:07:30;;;;;;;;;;;;;;;0.47;100.00;97082.50;1035217;28;19924;-70
2022/03/22 00:08:01;;;;;;;;;;;;;;;0.45;100.00;97081.06;1031646;28;19997;-68
2022/03/22 00:08:31;;;;;;;;;;;;;;;0.43;100.00;97080.41;1031504;28;19921;-69
2022/03/22 00:09:02;;;;;;;;;;;;;;;0.44;100.00;97079.44;1034582;28;19913;-69
2022/03/22 00:09:33;;;;;;;;;;;;;;;0.39;100.00;97079.94;1031324;28;20433;-69
2022/03/22 00:10:03;;;;;;;;;;;;;;;0.43;100.00;97072.66;1034553;28;20012;-70
2022/03/22 00:10:52;;;;;;;;;;;;;;;0.38;100.00;97086.06;1041290;28;19928;-69
2022/03/22 00:11:29;;;;;;;;;;;;;;;0.41;100.00;97084.94;1042677;28;20002;-69
2022/03/22 00:12:00;;;;;;;;;;;;;;;0.37;100.00;97084.47;1041017;28;20776;-69
2022/03/22 00:12:31;;;;;;;;;;;;;;;0.43;100.00;97086.38;1039466;28;19948;-69
2022/03/22 00:13:03;;;;;;;;;;;;;;;0.43;100.00;97083.78;1042968;28;19909;-69
2022/03/22 00:13:33;;;;;;;;;;;;;;;0.47;100.00;97086.88;1045687;28;19928;-69
2022/03/22 00:14:06;;;;;;;;;;;;;;;0.52;100.00;97079.41;1045775;28;19920;-70
2022/03/22 00:14:36;;;;;;;;;;;;;;;0.56;100.00;97083.28;1048781;28;19920;-69
2022/03/22 00:15:08;;;;;;;;;;;;;;;0.65;100.00;97082.28;1047874;28;19924;-68
2022/03/22 00:15:41;;;;;;;;;;;;;;;0.69;100.00;97083.56;1042390;28;19944;-69
2022/03/22 00:16:12;;;;;;;;;;;;;;;0.68;100.00;97086.31;1042494;28;19968;-69
2022/03/22 00:16:45;;;;;;;;;;;;;;;0.62;100.00;97087.78;1039473;28;19917;-69
2022/03/22 00:17:16;;;;;;;;;;;;;;;0.63;100.00;97081.63;1036620;28;20032;-68
2022/03/22 00:17:46;;;;;;;;;;;;;;;0.63;100.00;97084.22;1042663;28;20201;-69
2022/03/22 00:18:19;;;;;;;;;;;;;;;0.59;100.00;97084.72;1039482;28;19917;-69
2022/03/22 00:18:49;;;;;;;;;;;;;;;0.63;100.00;97084.22;1039097;28;19925;-70
2022/03/22 00:19:20;;;;;;;;;;;;;;;0.62;100.00;97085.19;1038489;28;19967;-69
2022/03/22 00:19:50;;;;;;;;;;;;;;;0.62;100.00;97081.81;1035261;28;20019;-69
2022/03/22 00:20:20;;;;;;;;;;;;;;;0.60;100.00;97081.97;1035082;28;19918;-69
2022/03/22 00:20:51;;;;;;;;;;;;;;;0.70;100.00;97080.03;1026007;28;19918;-69
2022/03/22 00:21:21;;;;;;;;;;;;;;;0.72;100.00;97081.63;1026280;28;19922;-69
2022/03/22 00:21:51;;;;;;;;;;;;;;;0.75;100.00;97081.28;1031170;28;19929;-68
2022/03/22 00:22:22;;;;;;;;;;;;;;;0.68;100.00;97081.97;1030998;28;19926;-69
2022/03/22 00:22:52;;;;;;;;;;;;;;;0.70;100.00;97079.19;1034275;28;20465;-69
2022/03/22 00:23:23;;;;;;;;;;;;;;;0.68;100.00;97076.78;1027104;28;20515;-68
2022/03/22 00:23:54;;;;;;;;;;;;;;;0.64;100.00;97082.47;1022887;29;19918;-68
2022/03/22 00:24:25;;;;;;;;;;;;;;;0.63;100.00;97079.06;1022846;28;19915;-68
2022/03/22 00:24:55;;;;;;;;;;;;;;;0.63;100.00;97079.06;1023277;28;19926;-68
2022/03/22 00:25:25;;;;;;;;;;;;;;;0.64;100.00;97075.50;1030957;28;19957;-69
2022/03/22 00:25:56;;;;;;;;;;;;;;;0.62;100.00;97080.03;1039766;28;19928;-69
2022/03/22 00:26:26;;;;;;;;;;;;;;;0.64;100.00;97080.69;1039040;28;20383;-69
2022/03/22 00:26:56;;;;;;;;;;;;;;;0.59;100.00;97082.16;1039177;28;20599;-69
2022/03/22 00:27:27;;;;;;;;;;;;;;;0.56;100.00;97078.09;1042923;28;20679;-69
2022/03/22 00:27:57;;;;;;;;;;;;;;;0.58;100.00;97083.94;1038578;28;20450;-69
2022/03/22 00:28:27;;;;;;;;;;;;;;;0.55;100.00;97080.88;1034822;28;20414;-70
2022/03/22 00:28:59;;;;;;;;;;;;;;;0.56;100.00;97085.06;1030688;28;19971;-68
2022/03/22 00:29:30;;;;;;;;;;;;;;;0.54;100.00;97079.25;1030789;28;19968;-69
2022/03/22 00:30:00;;;;;;;;;;;;;;;0.51;100.00;97079.59;1035411;28;19930;-69
2022/03/22 00:30:32;;;;;;;;;;;;;;;0.46;100.00;97077.50;1038909;28;19913;-68
2022/03/22 00:31:03;;;;;;;;;;;;;;;0.49;100.00;97087.50;1039354;28;19924;-69
2022/03/22 00:31:33;;;;;;;;;;;;;;;0.55;100.00;97081.66;1039974;28;19913;-69
2022/03/22 00:32:08;;;;;;;;;;;;;;;0.52;100.00;97073.44;1031747;28;19953;-70
2022/03/22 00:32:38;;;;;;;;;;;;;;;0.47;100.00;97079.94;1028841;28;20331;-71
2022/03/22 00:33:09;;;;;;;;;;;;;;;0.51;100.00;97080.41;1024814;28;19914;-69
2022/03/22 00:33:39;;;;;;;;;;;;;;;0.49;100.00;97082.34;1029145;28;19917;-69
2022/03/22 00:34:13;;;;;;;;;;;;;;;0.54;100.00;97082.66;1028272;28;19957;-69
2022/03/22 00:34:45;;;;;;;;;;;;;;;0.49;100.00;97074.59;1029749;28;20032;-68
2022/03/22 00:35:18;;;;;;;;;;;;;;;0.45;100.00;97078.47;1027827;28;19953;-68
2022/03/22 00:35:49;;;;;;;;;;;;;;;0.45;100.00;97081.84;1028151;28;19929;-68
2022/03/22 00:36:20;;;;;;;;;;;;;;;0.46;100.00;97083.47;1029345;28;20422;-69
2022/03/22 00:36:50;;;;;;;;;;;;;;;0.49;100.00;97079.75;1030454;28;19945;-68
2022/03/22 00:37:20;;;;;;;;;;;;;;;0.47;100.00;97076.53;1031107;28;20459;-68
2022/03/22 00:37:53;;;;;;;;;;;;;;;0.40;100.00;97083.31;1031497;28;20057;-68
2022/03/22 00:38:23;;;;;;;;;;;;;;;0.38;100.00;97080.09;1034979;28;20330;-68
2022/03/22 00:38:53;;;;;;;;;;;;;;;0.36;100.00;97085.41;1035331;28;19949;-69
2022/03/22 00:39:24;;;;;;;;;;;;;;;0.40;100.00;97085.91;1038609;28;19909;-69
2022/03/22 00:39:55;;;;;;;;;;;;;;;0.41;100.00;97077.19;1041918;28;19913;-70
2022/03/22 00:40:25;;;;;;;;;;;;;;;0.38;100.00;97080.91;1042972;28;19923;-69
2022/03/22 00:40:58;;;;;;;;;;;;;;;0.37;100.00;97083.63;1043548;28;20483;-68
2022/03/22 00:41:29;;;;;;;;;;;;;;;0.40;100.00;97081.56;1039159;28;19975;-68
2022/03/22 00:41:59;;;;;;;;;;;;;;;0.35;100.00;97081.25;1039075;28;20314;-69
2022/03/22 00:42:30;;;;;;;;;;;;;;;0.32;100.00;97080.75;1038569;28;20291;-69
2022/03/22 00:43:00;;;;;;;;;;;;;;;0.29;100.00;97086.25;1030909;28;19957;-69
2022/03/22 00:43:31;;;;;;;;;;;;;;;0.25;100.00;97087.56;1026917;28;20468;-68
2022/03/22 00:44:03;;;;;;;;;;;;;;;0.25;100.00;97083.19;1031222;28;19953;-68
2022/03/22 00:44:35;;;;;;;;;;;;;;;0.19;100.00;97084.66;1031386;28;20388;-68
2022/03/22 00:45:06;;;;;;;;;;;;;;;0.16;100.00;97082.38;1031747;28;20000;-69
2022/03/22 00:45:37;;;;;;;;;;;;;;;0.15;100.00;97080.78;1031604;28;19920;-69
2022/03/22 00:46:07;;;;;;;;;;;;;;;0.10;100.00;97077.91;1035036;28;20004;-68
2022/03/22 00:46:37;;;;;;;;;;;;;;;0.09;100.00;97080.63;1030887;28;19914;-69
2022/03/22 00:47:08;;;;;;;;;;;;;;;0.03;100.00;97081.28;1030953;28;19910;-68
2022/03/22 00:47:38;;;;;;;;;;;;;;;-0.01;100.00;97084.19;1031062;28;19906;-68
2022/03/22 00:48:12;;;;;;;;;;;;;;;-0.01;100.00;97088.53;1037786;28;19913;-69
2022/03/22 00:48:47;;;;;;;;;;;;;;;0.03;100.00;97082.06;1030936;28;19906;-69
2022/03/22 00:49:17;;;;;;;;;;;;;;;-0.05;100.00;97089.84;1027738;28;19910;-69
2022/03/22 00:49:48;;;;;;;;;;;;;;;-0.08;100.00;97088.38;1033983;28;19917;-69
2022/03/22 00:50:20;;;;;;;;;;;;;;;-0.07;100.00;97089.19;1037090;28;20709;-68
2022/03/22 00:50:53;;;;;;;;;;;;;;;-0.13;100.00;97082.91;1039150;28;19940;-69
2022/03/22 00:51:24;;;;;;;;;;;;;;;-0.17;100.00;97085.97;1034642;28;19916;-67
2022/03/22 00:51:54;;;;;;;;;;;;;;;-0.19;100.00;97085.34;1039501;28;19910;-69
2022/03/22 00:52:25;;;;;;;;;;;;;;;-0.18;100.00;97084.34;1039391;28;19945;-69
2022/03/22 00:52:56;;;;;;;;;;;;;;;-0.22;100.00;97089.03;1043283;28;19909;-69
2022/03/22 00:53:29;;;;;;;;;;;;;;;-0.24;100.00;97086.59;1038996;28;19905;-69
2022/03/22 00:54:02;;;;;;;;;;;;;;;-0.28;100.00;97085.31;1035048;28;19906;-69
2022/03/22 00:54:33;;;;;;;;;;;;;;;-0.31;100.00;97085.63;1031047;28;20280;-70
2022/03/22 00:55:05;;;;;;;;;;;;;;;-0.31;100.00;97083.06;1027572;28;19961;-69
2022/03/22 00:55:36;;;;;;;;;;;;;;;-0.34;100.00;97080.78;1031418;28;20401;-69
2022/03/22 00:56:07;;;;;;;;;;;;;;;-0.35;100.00;97086.94;1035370;28;19976;-68
2022/03/22 00:56:37;;;;;;;;;;;;;;;-0.35;100.00;97080.97;1039243;28;19952;-68
2022/03/22 00:57:07;;;;;;;;;;;;;;;-0.37;100.00;97082.88;1039406;28;20184;-69
2022/03/22 00:57:38;;;;;;;;;;;;;;;-0.41;100.00;97081.59;1039236;28;19917;-69
2022/03/22 00:58:09;;;;;;;;;;;;;;;-0.40;100.00;97078.06;1038853;28;19921;-69
2022/03/22 00:58:40;;;;;;;;;;;;;;;-0.43;100.00;97080.97;1035000;28;19922;-69
2022/03/22 01:00:04;;;;;;;;;;;;;;;-0.46;100.00;97084.66;1040030;28;19913;-68
2022/03/22 01:00:35;;;;;;;;;;;;;;;-0.41;100.00;97084.19;1046647;28;20011;-69
2022/03/22 01:01:05;;;;;;;;;;;;;;;-0.40;100.00;97073.72;1042971;28;19913;-69
2022/03/22 01:01:35;;;;;;;;;;;;;;;-0.41;100.00;97079.81;1043202;28;20742;-69
2022/03/22 01:02:06;;;;;;;;;;;;;;;-0.49;100.00;97082.41;1039048;28;19933;-68
2022/03/22 01:02:37;;;;;;;;;;;;;;;-0.51;100.00;97074.81;1034856;28;19964;-68
2022/03/22 01:03:08;;;;;;;;;;;;;;;-0.48;100.00;97078.84;1039078;28;19956;-69
2022/03/22 01:03:38;;;;;;;;;;;;;;;-0.46;100.00;97078.72;1034863;28;20427;-69
2022/03/22 01:04:09;;;;;;;;;;;;;;;-0.53;100.00;97079.34;1031102;28;19969;-69
2022/03/22 01:04:39;;;;;;;;;;;;;;;-0.56;100.00;97084.81;1030987;28;19918;-68
2022/03/22 01:05:14;;;;;;;;;;;;;;;-0.56;100.00;97086.59;1038766;28;19917;-69
2022/03/22 01:05:45;;;;;;;;;;;;;;;-0.55;100.00;97086.41;1039101;28;19917;-68
2022/03/22 01:06:15;;;;;;;;;;;;;;;-0.55;100.00;97077.88;1035669;28;20762;-69
2022/03/22 01:06:45;;;;;;;;;;;;;;;-0.56;100.00;97086.59;1038752;28;19960;-69
2022/03/22 01:07:17;;;;;;;;;;;;;;;-0.56;100.00;97091.75;1035140;28;19928;-69
2022/03/22 01:07:49;;;;;;;;;;;;;;;-0.53;100.00;97087.09;1035204;28;19928;-68
2022/03/22 01:08:19;;;;;;;;;;;;;;;-0.56;100.00;97084.00;1035219;28;19921;-69
2022/03/22 01:08:50;;;;;;;;;;;;;;;-0.54;100.00;97082.06;1034629;28;19917;-68
2022/03/22 01:09:20;;;;;;;;;;;;;;;-0.56;100.00;97092.56;1034550;28;19921;-69
2022/03/22 01:09:50;;;;;;;;;;;;;;;-0.58;100.00;97086.75;1038168;28;19925;-68
2022/03/22 01:10:21;;;;;;;;;;;;;;;-0.57;100.00;97080.63;1043001;28;19921;-69
2022/03/22 01:10:54;;;;;;;;;;;;;;;-0.55;100.00;97088.19;1038840;28;19967;-69
2022/03/22 01:11:25;;;;;;;;;;;;;;;-0.55;100.00;97091.56;1039023;28;19917;-68
2022/03/22 01:11:57;;;;;;;;;;;;;;;-0.49;100.00;97093.53;1038769;28;20359;-69
2022/03/22 01:12:27;;;;;;;;;;;;;;;-0.50;100.00;97091.13;1039187;28;20485;-68
2022/03/22 01:12:57;;;;;;;;;;;;;;;-0.51;100.00;97094.66;1038916;28;19992;-69
2022/03/22 01:13:28;;;;;;;;;;;;;;;-0.51;100.00;97090.28;1037111;28;20277;-69
2022/03/22 01:13:58;;;;;;;;;;;;;;;-0.54;100.00;97093.22;1043092;28;19913;-69
2022/03/22 01:14:28;;;;;;;;;;;;;;;-0.51;100.00;97092.06;1047384;28;20300;-69
2022/03/22 01:14:59;;;;;;;;;;;;;;;-0.44;100.00;97093.03;1043088;28;20011;-69
2022/03/22 01:15:33;;;;;;;;;;;;;;;-0.48;100.00;97100.28;1038983;28;19909;-68
2022/03/22 01:16:03;;;;;;;;;;;;;;;-0.55;100.00;97099.31;1034804;28;19998;-68
2022/03/22 01:16:34;;;;;;;;;;;;;;;-0.56;100.00;97102.06;1031718;28;19995;-69
2022/03/22 01:17:06;;;;;;;;;;;;;;;-0.60;100.00;97106.72;1027175;28;19914;-68
2022/03/22 01:17:37;;;;;;;;;;;;;;;-0.65;100.00;97103.81;1030928;28;19941;-69
2022/03/22 01:18:07;;;;;;;;;;;;;;;-0.66;100.00;97098.81;1031083;28;19969;-68
2022/03/22 01:18:38;;;;;;;;;;;;;;;-0.71;100.00;97100.06;1030946;28;20330;-69
2022/03/22 01:19:08;;;;;;;;;;;;;;;-0.72;100.00;97101.06;1034401;28;19918;-68
2022/03/22 01:19:39;;;;;;;;;;;;;;;-0.75;100.00;97097.97;1035581;28;19917;-69
2022/03/22 01:20:12;;;;;;;;;;;;;;;-0.79;100.00;97102.66;1042830;28;19917;-69
2022/03/22 01:20:44;;;;;;;;;;;;;;;-0.80;100.00;97102.81;1038844;28;20617;-69
2022/03/22 01:21:14;;;;;;;;;;;;;;;-0.86;100.00;97093.94;1042815;28;19919;-69
2022/03/22 01:21:44;;;;;;;;;;;;;;;-0.88;100.00;97097.63;1042972;28;19948;-69
2022/03/22 01:22:16;;;;;;;;;;;;;;;-0.90;100.00;97095.22;1043409;28;19917;-69
2022/03/22 01:22:47;;;;;;;;;;;;;;;-0.86;100.00;97096.50;1042686;28;19971;-69
2022/03/22 01:23:19;;;;;;;;;;;;;;;-0.89;100.00;97094.25;1035539;28;19932;-69
2022/03/22 01:23:50;;;;;;;;;;;;;;;-0.93;100.00;97089.56;1034731;28;19944;-68
2022/03/22 01:24:20;;;;;;;;;;;;;;;-0.92;100.00;97091.19;1034690;28;20313;-68
2022/03/22 01:24:52;;;;;;;;;;;;;;;-0.97;100.00;97089.09;1034815;28;19940;-68
2022/03/22 01:25:27;;;;;;;;;;;;;;;-0.98;100.00;97084.88;1035397;28;19921;-69
2022/03/22 01:25:57;;;;;;;;;;;;;;;-1.02;100.00;97081.81;1039812;28;19996;-69
2022/03/22 01:26:28;;;;;;;;;;;;;;;-0.96;100.00;97091.50;1042950;28;20338;-69
2022/03/22 01:26:59;;;;;;;;;;;;;;;-0.88;100.00;97097.63;1043875;28;20666;-69
2022/03/22 01:27:32;;;;;;;;;;;;;;;-0.82;100.00;97097.81;1043172;28;19921;-69
2022/03/22 01:28:05;;;;;;;;;;;;;;;-0.88;100.00;97098.44;1038401;28;19913;-68
2022/03/22 01:28:35;;;;;;;;;;;;;;;-0.88;100.00;97101.00;1034838;28;19913;-69
2022/03/22 01:29:06;;;;;;;;;;;;;;;-0.88;100.00;97103.59;1030299;28;19913;-68
2022/03/22 01:29:37;;;;;;;;;;;;;;;-0.86;100.00;97100.88;1030682;28;19921;-68
2022/03/22 01:30:08;;;;;;;;;;;;;;;-0.84;100.00;97098.91;1034995;28;20597;-69
2022/03/22 01:30:38;;;;;;;;;;;;;;;-0.86;100.00;97095.72;1034958;28;19909;-68
2022/03/22 01:31:09;;;;;;;;;;;;;;;-0.85;100.00;97087.81;1038430;28;20402;-68
2022/03/22 01:31:39;;;;;;;;;;;;;;;-0.89;100.00;97091.66;1038868;28;19921;-68
2022/03/22 01:32:10;;;;;;;;;;;;;;;-0.85;100.00;97082.66;1034791;28;19913;-69
2022/03/22 01:32:41;;;;;;;;;;;;;;;-0.85;100.00;97087.00;1038926;28;19925;-69
2022/03/22 01:33:15;;;;;;;;;;;;;;;-0.98;100.00;97059.13;1039262;28;19913;-68
2022/03/22 01:33:45;;;;;;;;;;;;;;;-0.85;100.00;97082.66;1034754;28;20373;-68
2022/03/22 01:34:15;;;;;;;;;;;;;;;-0.90;100.00;97089.25;1031035;28;19921;-68
2022/03/22 01:34:46;;;;;;;;;;;;;;;-0.94;100.00;97086.16;1027385;28;19970;-68
2022/03/22 01:35:17;;;;;;;;;;;;;;;-0.98;100.00;97079.72;1035442;28;20375;-68
2022/03/22 01:35:50;;;;;;;;;;;;;;;-0.99;100.00;97086.66;1035465;28;19913;-69
2022/03/22 01:36:21;;;;;;;;;;;;;;;-0.97;100.00;97089.09;1039272;28;19918;-68
2022/03/22 01:36:51;;;;;;;;;;;;;;;-1.01;100.00;97085.19;1038890;28;19924;-68
2022/03/22 01:37:22;;;;;;;;;;;;;;;-1.04;100.00;97080.34;1039523;28;20326;-68
2022/03/22 01:37:52;;;;;;;;;;;;;;;-1.06;100.00;97075.34;1038742;28;20295;-68
2022/03/22 01:38:23;;;;;;;;;;;;;;;-1.08;100.00;97079.06;1035063;28;20326;-68
2022/03/22 01:38:53;;;;;;;;;;;;;;;-1.11;100.00;97080.16;1038774;28;19921;-69
2022/03/22 01:39:23;;;;;;;;;;;;;;;-1.04;100.00;97085.50;1038201;28;20387;-67
2022/03/22 01:39:54;;;;;;;;;;;;;;;-0.93;100.00;97089.56;1038297;28;20211;-69
2022/03/22 01:40:25;;;;;;;;;;;;;;;-0.92;100.00;97091.19;1043006;28;20257;-68
2022/03/22 01:40:55;;;;;;;;;;;;;;;-0.94;100.00;97083.59;1038699;28;19917;-69
2022/03/22 01:41:26;;;;;;;;;;;;;;;-0.91;100.00;97085.84;1038922;28;19917;-68
2022/03/22 01:41:57;;;;;;;;;;;;;;;-0.90;100.00;97090.06;1030793;28;19977;-68
2022/03/22 01:42:27;;;;;;;;;;;;;;;-0.82;100.00;97091.84;1031098;28;19918;-68
2022/03/22 01:42:58;;;;;;;;;;;;;;;-0.83;100.00;97085.91;1030662;28;19917;-68
2022/03/22 01:43:28;;;;;;;;;;;;;;;-0.87;100.00;97088.91;1031305;28;19921;-68
2022/03/22 01:43:59;;;;;;;;;;;;;;;-0.89;100.00;97083.94;1039206;28;20414;-68
2022/03/22 01:44:29;;;;;;;;;;;;;;;-0.86;100.00;97085.41;1038948;28;20410;-69
2022/03/22 01:44:59;;;;;;;;;;;;;;;-0.85;100.00;97087.81;1038626;28;19917;-68
2022/03/22 01:45:30;;;;;;;;;;;;;;;-0.81;100.00;97081.38;1035187;28;19925;-69
2022/03/22 01:46:00;;;;;;;;;;;;;;;-0.81;100.00;97083.94;1030814;28;19913;-68
2022/03/22 01:46:31;;;;;;;;;;;;;;;-0.80;100.00;97085.59;1030697;28;19921;-68
2022/03/22 01:47:04;;;;;;;;;;;;;;;-0.75;100.00;97082.53;1030487;28;19925;-68
2022/03/22 01:47:35;;;;;;;;;;;;;;;-0.73;100.00;97086.56;1030934;28;19937;-68
2022/03/22 01:48:05;;;;;;;;;;;;;;;-0.72;100.00;97080.44;1031796;28;19918;-69
2022/03/22 01:48:36;;;;;;;;;;;;;;;-0.78;100.00;97080.25;1039621;28;20391;-68
2022/03/22 01:49:07;;;;;;;;;;;;;;;-0.81;100.00;97083.16;1042093;28;19913;-68
2022/03/22 01:49:37;;;;;;;;;;;;;;;-0.87;100.00;97084.59;1039031;28;20398;-68
2022/03/22 01:50:08;;;;;;;;;;;;;;;-0.90;100.00;97081.53;1038242;28;20714;-69
2022/03/22 01:50:38;;;;;;;;;;;;;;;-0.95;100.00;97082.78;1035421;28;19922;-68
2022/03/22 01:51:09;;;;;;;;;;;;;;;-0.97;100.00;97083.94;1034537;28;19917;-69
2022/03/22 01:51:40;;;;;;;;;;;;;;;-1.01;100.00;97080.03;1026784;28;20581;-68
2022/03/22 01:52:13;;;;;;;;;;;;;;;-1.05;100.00;97076.16;1030435;28;19914;-70
2022/03/22 01:52:44;;;;;;;;;;;;;;;-1.06;100.00;97075.34;1038507;28;19917;-68
2022/03/22 01:53:14;;;;;;;;;;;;;;;-1.08;100.00;97076.47;1037705;28;19943;-69
2022/03/22 01:53:46;;;;;;;;;;;;;;;-1.11;100.00;97077.59;1034217;28;20264;-68
2022/03/22 01:54:18;;;;;;;;;;;;;;;-1.07;100.00;97078.91;1031658;28;20017;-69
2022/03/22 01:54:51;;;;;;;;;;;;;;;-1.08;100.00;97086.78;1035204;28;19913;-69
2022/03/22 01:55:23;;;;;;;;;;;;;;;-1.11;100.00;97079.34;1035422;28;19992;-69
2022/03/22 01:55:54;;;;;;;;;;;;;;;-1.11;100.00;97081.94;1031360;28;19950;-69
2022/03/22 01:56:24;;;;;;;;;;;;;;;-1.04;100.00;97076.03;1027730;28;19918;-69
2022/03/22 01:56:58;;;;;;;;;;;;;;;-1.05;100.00;97081.31;1027568;28;19922;-69
2022/03/22 01:57:30;;;;;;;;;;;;;;;-1.06;100.00;97080.50;1036411;28;19933;-69
2022/03/22 01:58:00;;;;;;;;;;;;;;;-1.03;100.00;97079.41;1043533;28;19959;-68
2022/03/22 01:58:31;;;;;;;;;;;;;;;-1.05;100.00;97065.88;1039381;28;19925;-68
2022/03/22 01:59:01;;;;;;;;;;;;;;;-0.99;100.00;97083.28;1039444;28;19964;-69
2022/03/22 01:59:31;;;;;;;;;;;;;;;-0.99;100.00;97078.13;1035341;28;20379;-68
2022/03/22 02:00:06;;;;;;;;;;;;;;;-0.96;100.00;97080.38;1039417;28;20454;-69
2022/03/22 02:00:36;;;;;;;;;;;;;;;-0.96;100.00;97080.38;1039575;28;19921;-69
2022/03/22 02:06:00;;;;;;;;;;;;;;;-1.06;100.00;97083.09;1040744;28;20385;-68
2022/03/22 02:06:31;;;;;;;;;;;;;;;-1.05;100.00;97076.16;1039529;28;19964;-68
2022/03/22 02:07:02;;;;;;;;;;;;;;;-1.07;100.00;97078.09;1035250;28;20000;-70
2022/03/22 02:07:32;;;;;;;;;;;;;;;-1.06;100.00;97074.56;1035212;28;19914;-69
2022/03/22 02:08:05;;;;;;;;;;;;;;;-1.05;100.00;97076.16;1031265;28;19975;-68
2022/03/22 02:08:35;;;;;;;;;;;;;;;-1.06;100.00;97074.56;1029528;28;19921;-68
2022/03/22 02:09:05;;;;;;;;;;;;;;;-1.09;100.00;97082.59;1035062;28;19960;-68
2022/03/22 02:09:36;;;;;;;;;;;;;;;-1.06;100.00;97075.34;1031743;28;19917;-70
2022/03/22 02:10:07;;;;;;;;;;;;;;;-1.02;100.00;97078.44;1035644;28;20286;-69
2022/03/22 02:10:37;;;;;;;;;;;;;;;-1.05;100.00;97076.16;1038169;28;19952;-69
2022/03/22 02:11:08;;;;;;;;;;;;;;;-1.09;100.00;97075.66;1038539;28;19988;-69
2022/03/22 02:11:38;;;;;;;;;;;;;;;-1.09;100.00;97072.28;1037429;28;19925;-69
2022/03/22 02:12:09;;;;;;;;;;;;;;;-1.12;100.00;97075.97;1038138;28;19913;-69
2022/03/22 02:12:40;;;;;;;;;;;;;;;-1.13;100.00;97076.16;1031672;28;19924;-68
2022/03/22 02:13:11;;;;;;;;;;;;;;;-1.16;100.00;97073.88;1031870;28;20413;-68
2022/03/22 02:13:42;;;;;;;;;;;;;;;-1.17;100.00;97078.22;1033147;28;19974;-69
2022/03/22 02:14:12;;;;;;;;;;;;;;;-1.17;100.00;97082.53;1032385;28;20025;-68
2022/03/22 02:14:43;;;;;;;;;;;;;;;-1.17;100.00;97077.41;1039552;28;19909;-68
2022/03/22 02:15:13;;;;;;;;;;;;;;;-1.22;100.00;97080.44;1035781;28;20389;-68
2022/03/22 02:15:45;;;;;;;;;;;;;;;-1.21;100.00;97074.31;1035547;28;19917;-68
2022/03/22 02:16:18;;;;;;;;;;;;;;;-1.20;100.00;97073.38;1031276;28;20295;-69
2022/03/22 02:16:48;;;;;;;;;;;;;;;-1.21;100.00;97076.91;1032246;28;19921;-69
2022/03/22 02:17:19;;;;;;;;;;;;;;;-1.23;100.00;97079.66;1039441;28;19928;-68
2022/03/22 02:17:49;;;;;;;;;;;;;;;-1.26;100.00;97085.09;1039950;28;19925;-68
2022/03/22 02:18:20;;;;;;;;;;;;;;;-1.27;100.00;97086.06;1039489;28;19921;-69
2022/03/22 02:18:50;;;;;;;;;;;;;;;-1.27;100.00;97080.13;1031271;28;19964;-69
2022/03/22 02:19:21;;;;;;;;;;;;;;;-1.27;100.00;97080.13;1024878;28;20021;-68
2022/03/22 02:19:51;;;;;;;;;;;;;;;-1.32;100.00;97078.00;1023445;28;19918;-69
2022/03/22 02:20:22;;;;;;;;;;;;;;;-1.35;100.00;97070.56;1027464;28;19922;-69
2022/03/22 02:20:52;;;;;;;;;;;;;;;-1.37;100.00;97082.81;1036469;28;19914;-69
2022/03/22 02:21:23;;;;;;;;;;;;;;;-1.37;100.00;97075.09;1041745;28;19925;-67
2022/03/22 02:21:56;;;;;;;;;;;;;;;-1.38;100.00;97076.03;1048177;28;19962;-69
2022/03/22 02:22:36;;;;;;;;;;;;;;;-1.38;100.00;97076.03;1035207;28;20577;-68
2022/03/22 02:23:06;;;;;;;;;;;;;;;-1.42;100.00;97070.38;1035378;28;20396;-68
2022/03/22 02:23:52;;;;;;;;;;;;;;;-1.41;100.00;97081.47;1035888;28;19914;-69
2022/03/22 02:24:23;;;;;;;;;;;;;;;-1.42;100.00;97079.88;1037868;28;19962;-69
2022/03/22 02:24:53;;;;;;;;;;;;;;;-1.43;100.00;97078.28;1035799;28;19957;-68
2022/03/22 02:25:23;;;;;;;;;;;;;;;-1.44;100.00;97076.66;1037565;28;19921;-68
2022/03/22 02:25:56;;;;;;;;;;;;;;;-1.43;100.00;97073.13;1035397;28;19921;-69
2022/03/22 02:26:27;;;;;;;;;;;;;;;-1.42;100.00;97069.59;1031396;28;19926;-69
2022/03/22 02:26:58;;;;;;;;;;;;;;;-1.44;100.00;97074.91;1032093;28;19918;-69
2022/03/22 02:27:30;;;;;;;;;;;;;;;-1.40;100.00;97072.03;1032387;28;19913;-69
2022/03/22 02:28:00;;;;;;;;;;;;;;;-1.41;100.00;97063.47;1031894;28;20366;-69
2022/03/22 02:28:32;;;;;;;;;;;;;;;-1.42;100.00;97072.16;1028709;28;19934;-68
2022/03/22 02:29:03;;;;;;;;;;;;;;;-1.45;100.00;97065.53;1025509;28;19942;-69
2022/03/22 02:29:34;;;;;;;;;;;;;;;-1.47;100.00;97067.47;1032733;28;19960;-68
2022/03/22 02:30:04;;;;;;;;;;;;;;;-1.46;100.00;97063.94;1037418;28;20354;-69
2022/03/22 02:30:35;;;;;;;;;;;;;;;-1.46;100.00;97070.84;1032381;28;19981;-68
2022/03/22 02:31:06;;;;;;;;;;;;;;;-1.49;100.00;97066.81;1035335;28;19914;-69
2022/03/22 02:31:36;;;;;;;;;;;;;;;-1.48;100.00;97070.19;1035958;28;19963;-68
2022/03/22 02:32:07;;;;;;;;;;;;;;;-1.48;100.00;97065.03;1035767;28;19916;-69
2022/03/22 02:32:38;;;;;;;;;;;;;;;-1.46;100.00;97068.28;1043773;28;19908;-69
2022/03/22 02:33:08;;;;;;;;;;;;;;;-1.49;100.00;97066.00;1039664;28;20363;-69
2022/03/22 02:33:42;;;;;;;;;;;;;;;-1.50;100.00;97065.22;1031441;28;19953;-69
2022/03/22 02:34:15;;;;;;;;;;;;;;;-1.46;100.00;97060.56;1027447;28;19941;-69
2022/03/22 02:34:48;;;;;;;;;;;;;;;-1.43;100.00;97062.84;1027218;28;19911;-69
2022/03/22 02:35:19;;;;;;;;;;;;;;;-1.46;100.00;97060.56;1027428;28;20372;-68
2022/03/22 02:35:49;;;;;;;;;;;;;;;-1.45;100.00;97065.53;1025220;28;19919;-68
2022/03/22 02:36:19;;;;;;;;;;;;;;;-1.44;100.00;97067.19;1030949;28;19926;-68
2022/03/22 02:36:50;;;;;;;;;;;;;;;-1.46;100.00;97063.13;1027312;28;19957;-68
2022/03/22 02:37:20;;;;;;;;;;;;;;;-1.46;100.00;97063.13;1031699;28;19924;-68
2022/03/22 02:37:51;;;;;;;;;;;;;;;-1.47;100.00;97062.34;1030497;28;19921;-69
2022/03/22 02:38:21;;;;;;;;;;;;;;;-1.48;100.00;97065.84;1031775;28;19925;-68
2022/03/22 02:38:51;;;;;;;;;;;;;;;-1.47;100.00;97057.19;1035385;28;20302;-69
2022/03/22 02:39:22;;;;;;;;;;;;;;;-1.46;100.00;97060.56;1038167;28;19917;-68
2022/03/22 02:39:52;;;;;;;;;;;;;;;-1.46;100.00;97063.13;1039663;28;19923;-68
2022/03/22 02:40:26;;;;;;;;;;;;;;;-1.49;100.00;97060.88;1039646;28;19917;-69
2022/03/22 02:40:56;;;;;;;;;;;;;;;-1.50;100.00;97062.63;1036288;28;19917;-69
2022/03/22 02:41:26;;;;;;;;;;;;;;;-1.47;100.00;97061.53;1035409;28;19952;-68
2022/03/22 02:41:57;;;;;;;;;;;;;;;-1.43;100.00;97062.84;1035447;28;20012;-69
2022/03/22 02:42:28;;;;;;;;;;;;;;;-1.43;100.00;97062.84;1027449;28;20386;-69
2022/03/22 02:42:59;;;;;;;;;;;;;;;-1.42;100.00;97061.88;1032300;28;19917;-68
2022/03/22 02:43:29;;;;;;;;;;;;;;;-1.39;100.00;97061.56;1036144;28;19949;-68
2022/03/22 02:43:59;;;;;;;;;;;;;;;-1.43;100.00;97062.84;1037033;28;19956;-68
2022/03/22 02:44:30;;;;;;;;;;;;;;;-1.39;100.00;97056.41;1040330;28;19918;-69
2022/03/22 02:45:00;;;;;;;;;;;;;;;-1.37;100.00;97061.41;1040278;28;19955;-69
2022/03/22 02:45:31;;;;;;;;;;;;;;;-1.35;100.00;97065.44;1040375;28;19921;-69
2022/03/22 02:46:01;;;;;;;;;;;;;;;-1.38;100.00;97058.00;1040377;28;20433;-68
2022/03/22 02:46:31;;;;;;;;;;;;;;;-1.37;100.00;97062.22;1044558;28;20406;-68